地図

経路データ

SID SEASON NUMBER BASIN SUBBASIN NAME ISO_TIME NATURE LAT LON WMO_WIND WMO_PRES WMO_AGENCY TRACK_TYPE DIST2LAND LANDFALL IFLAG USA_AGENCY USA_ATCF_ID USA_LAT USA_LON USA_RECORD USA_STATUS USA_WIND USA_PRES USA_SSHS USA_R34_NE USA_R34_SE USA_R34_SW USA_R34_NW USA_R50_NE USA_R50_SE USA_R50_SW USA_R50_NW USA_R64_NE USA_R64_SE USA_R64_SW USA_R64_NW USA_POCI USA_ROCI USA_RMW USA_EYE TOKYO_LAT TOKYO_LON TOKYO_GRADE TOKYO_WIND TOKYO_PRES TOKYO_R50_DIR TOKYO_R50_LONG TOKYO_R50_SHORT TOKYO_R30_DIR TOKYO_R30_LONG TOKYO_R30_SHORT TOKYO_LAND CMA_LAT CMA_LON CMA_CAT CMA_WIND CMA_PRES HKO_LAT HKO_LON HKO_CAT HKO_WIND HKO_PRES NEWDELHI_LAT NEWDELHI_LON NEWDELHI_GRADE NEWDELHI_WIND NEWDELHI_PRES NEWDELHI_CI NEWDELHI_DP NEWDELHI_POCI REUNION_LAT REUNION_LON REUNION_TYPE REUNION_WIND REUNION_PRES REUNION_TNUM REUNION_CI REUNION_RMW REUNION_R34_NE REUNION_R34_SE REUNION_R34_SW REUNION_R34_NW REUNION_R50_NE REUNION_R50_SE REUNION_R50_SW REUNION_R50_NW REUNION_R64_NE REUNION_R64_SE REUNION_R64_SW REUNION_R64_NW BOM_LAT BOM_LON BOM_TYPE BOM_WIND BOM_PRES BOM_TNUM BOM_CI BOM_RMW BOM_R34_NE BOM_R34_SE BOM_R34_SW BOM_R34_NW BOM_R50_NE BOM_R50_SE BOM_R50_SW BOM_R50_NW BOM_R64_NE BOM_R64_SE BOM_R64_SW BOM_R64_NW BOM_ROCI BOM_POCI BOM_EYE BOM_POS_METHOD BOM_PRES_METHOD NADI_LAT NADI_LON NADI_CAT NADI_WIND NADI_PRES WELLINGTON_LAT WELLINGTON_LON WELLINGTON_WIND WELLINGTON_PRES DS824_LAT DS824_LON DS824_STAGE DS824_WIND DS824_PRES TD9636_LAT TD9636_LON TD9636_STAGE TD9636_WIND TD9636_PRES TD9635_LAT TD9635_LON TD9635_WIND TD9635_PRES TD9635_ROCI NEUMANN_LAT NEUMANN_LON NEUMANN_CLASS NEUMANN_WIND NEUMANN_PRES MLC_LAT MLC_LON MLC_CLASS MLC_WIND MLC_PRES USA_GUST BOM_GUST BOM_GUST_PER REUNION_GUST REUNION_GUST_PER USA_SEAHGT USA_SEARAD_NE USA_SEARAD_SE USA_SEARAD_SW USA_SEARAD_NW STORM_SPEED STORM_DIR
1989302S05079 1990 119 SI MM NOT_NAMED 1989-10-28 18:00:00 TS -5.10000 78.7000 main 1250 1248 O___________O_ jtwc_sh SH051990 -5.10000 78.7000 15 -1 -5.10000 78.7000 TC 15 3 111
1989302S05079 1990 119 SI MM NOT_NAMED 1989-10-28 21:00:00 TS -5.15250 78.8375 main 1259 1256 P___________P_ SH051990 -5.15250 78.8375 15 -1 -5.15250 78.8375 TC 15 3 109
1989302S05079 1990 119 SI MM NOT_NAMED 1989-10-29 00:00:00 TS -5.20000 79.0000 main 1256 1253 O___________O_ jtwc_sh SH051990 -5.20000 79.0000 15 -1 -5.20000 79.0000 TC 15 4 104
1989302S05079 1990 119 SI MM NOT_NAMED 1989-10-29 03:00:00 TS -5.24251 79.2000 main 1253 1253 P___________P_ SH051990 -5.24251 79.2000 17 -1 -5.24251 79.2000 TC 17 4 104
1989302S05079 1990 119 SI MM NOT_NAMED 1989-10-29 06:00:00 TS -5.30000 79.4000 main 1262 1261 O___________O_ jtwc_sh SH051990 -5.30000 79.4000 20 -1 -5.30000 79.4000 TC 20 4 114
1989302S05079 1990 119 SI MM NOT_NAMED 1989-10-29 09:00:00 TS -5.39999 79.5575 main 1271 1271 P___________P_ SH051990 -5.39999 79.5575 20 -1 -5.39999 79.5575 TC 20 4 124
1989302S05079 1990 119 SI MM NOT_NAMED 1989-10-29 12:00:00 TS -5.50000 79.7000 main 1281 1280 O___________O_ jtwc_sh SH051990 -5.50000 79.7000 20 -1 -5.50000 79.7000 TC 20 3 120
1989302S05079 1990 119 SI MM NOT_NAMED 1989-10-29 15:00:00 TS -5.55748 79.8350 main 1291 1290 P___________P_ SH051990 -5.55748 79.8350 20 -1 -5.55748 79.8350 TC 20 3 109
1989302S05079 1990 119 SI MM NOT_NAMED 1989-10-29 18:00:00 TS -5.60000 80.0000 main 1290 1289 O___________O_ jtwc_sh SH051990 -5.60000 80.0000 20 -1 -5.60000 80.0000 TC 20 4 103
1989302S05079 1990 119 SI MM NOT_NAMED 1989-10-29 21:00:00 TS -5.65000 80.2275 main 1289 1289 P___________P_ SH051990 -5.65000 80.2275 22 -1 -5.65000 80.2275 TC 22 5 101
1989302S05079 1990 119 SI MM NOT_NAMED 1989-10-30 00:00:00 TS -5.70000 80.5000 main 1299 1299 O___________O_ jtwc_sh SH051990 -5.70000 80.5000 25 -1 -5.70000 80.5000 TC 25 5 97
1989302S05079 1990 119 SI MM NOT_NAMED 1989-10-30 03:00:00 TS -5.71233 80.7252 main 1299 1299 P___________P_ SH051990 -5.71233 80.7252 25 -1 -5.71233 80.7252 TC 25 6 100
1989302S05079 1990 119 SI MM NOT_NAMED 1989-10-30 06:00:00 TS -5.80000 81.1000 main 1312 1312 O___________O_ jtwc_sh SH051990 -5.80000 81.1000 25 -1 -5.80000 81.1000 TC 25 11 108
1989302S05079 1990 119 SI MM NOT_NAMED 1989-10-30 09:00:00 TS -6.05521 81.8049 main 1351 1351 P___________P_ SH051990 -6.05521 81.8049 27 -1 -6.05521 81.8049 TC 27 16 112
1989302S05079 1990 119 SI MM NOT_NAMED 1989-10-30 12:00:00 TS -6.40000 82.6000 main 1396 1396 O___________O_ jtwc_sh SH051990 -6.40000 82.6000 30 -1 -6.40000 82.6000 TC 30 16 116
1989302S05079 1990 119 SI MM NOT_NAMED 1989-10-30 15:00:00 TS -6.74243 83.2525 main 1443 1443 P___________P_ SH051990 -6.74243 83.2525 30 -1 -6.74243 83.2525 TC 30 14 120
1989302S05079 1990 119 SI MM NOT_NAMED 1989-10-30 18:00:00 TS -7.10000 83.8000 main 1499 1499 O___________O_ jtwc_sh SH051990 -7.10000 83.8000 30 -1 -7.10000 83.8000 TC 30 12 125
1989302S05079 1990 119 SI MM NOT_NAMED 1989-10-30 21:00:00 TS -7.41988 84.2302 main 1543 1543 P___________P_ SH051990 -7.41988 84.2302 32 -1 -7.41988 84.2302 TC 32 11 131
1989302S05079 1990 119 SI MM NOT_NAMED 1989-10-31 00:00:00 TS -7.80000 84.6000 main 1598 1598 O___________O_ jtwc_sh SH051990 -7.80000 84.6000 35 0 -7.80000 84.6000 TC 35 12 139
1989302S05079 1990 119 SI MM NOT_NAMED 1989-10-31 03:00:00 TS -8.33502 85.0224 main 1664 1664 P___________P_ SH051990 -8.33502 85.0224 35 0 -8.33502 85.0224 TC 35 14 144
1989302S05079 1990 119 SI MM NOT_NAMED 1989-10-31 06:00:00 TS -8.90000 85.4000 main 1697 1694 O___________O_ jtwc_sh SH051990 -8.90000 85.4000 35 0 -8.90000 85.4000 TC 35 13 150
1989302S05079 1990 119 SI MM NOT_NAMED 1989-10-31 09:00:00 TS -9.45494 85.6875 main 1702 1698 P___________P_ SH051990 -9.45494 85.6875 35 0 -9.45494 85.6875 TC 35 10 151
1989302S05079 1990 119 SI MM NOT_NAMED 1989-10-31 12:00:00 TS -9.80000 85.9000 main 1700 1682 O___________O_ jtwc_sh SH051990 -9.80000 85.9000 35 0 -9.80000 85.9000 TC 35 5 124
1989302S05079 1990 119 SI MM NOT_NAMED 1989-10-31 15:00:00 TS -9.73998 86.1177 main 1676 1655 P___________P_ SH051990 -9.73998 86.1177 35 0 -9.73998 86.1177 TC 35 4 44
1989302S05079 1990 119 SI MM NOT_NAMED 1989-10-31 18:00:00 TS -9.50000 86.2000 main 1655 1649 O___________O_ jtwc_sh SH051990 -9.50000 86.2000 35 0 -9.50000 86.2000 TC 35 4 352
1989302S05079 1990 119 SI MM NOT_NAMED 1989-10-31 21:00:00 TS -9.34249 86.0674 main 1653 1653 P___________P_ SH051990 -9.34249 86.0674 35 0 -9.34249 86.0674 TC 35 5 307
1989302S05079 1990 119 SI MM NOT_NAMED 1989-11-01 00:00:00 TS -9.20000 85.8000 main 1676 1676 O___________O_ jtwc_sh SH051990 -9.20000 85.8000 35 0 -9.20000 85.8000 TC 35 6 295
1989302S05079 1990 119 SI MM NOT_NAMED 1989-11-01 03:00:00 TS -9.09247 85.5300 main 1699 1699 P___________P_ SH051990 -9.09247 85.5300 32 -1 -9.09247 85.5300 TC 32 6 289
1989302S05079 1990 119 SI MM NOT_NAMED 1989-11-01 06:00:00 TS -9.00000 85.2000 main 1722 1722 O___________O_ jtwc_sh SH051990 -9.00000 85.2000 30 -1 -9.00000 85.2000 TC 30 7 286
1989302S05079 1990 119 SI MM NOT_NAMED 1989-11-01 09:00:00 TS -8.88500 84.8150 main 1722 1700 P___________P_ SH051990 -8.88500 84.8150 30 -1 -8.88500 84.8150 TC 30 8 284
1989302S05079 1990 119 SI MM NOT_NAMED 1989-11-01 12:00:00 TS -8.80000 84.4000 main 1700 1689 O___________O_ jtwc_sh SH051990 -8.80000 84.4000 30 -1 -8.80000 84.4000 TC 30 8 277
1989302S05079 1990 119 SI MM NOT_NAMED 1989-11-01 15:00:00 TS -8.78504 83.9701 main 1689 1680 P___________P_ SH051990 -8.78504 83.9701 30 -1 -8.78504 83.9701 TC 30 8 270
1989302S05079 1990 119 SI MM NOT_NAMED 1989-11-01 18:00:00 TS -8.80000 83.6000 main 1680 1676 O___________O_ jtwc_sh SH051990 -8.80000 83.6000 30 -1 -8.80000 83.6000 TC 30 6 269
1989302S05079 1990 119 SI MM NOT_NAMED 1989-11-01 21:00:00 TS -8.79992 83.3700 main 1676 1672 P___________P_ SH051990 -8.79992 83.3700 27 -1 -8.79992 83.3700 TC 27 4 270
1989302S05079 1990 119 SI MM NOT_NAMED 1989-11-02 00:00:00 TS -8.80000 83.2000 main 1672 1668 O___________O_ jtwc_sh SH051990 -8.80000 83.2000 25 -1 -8.80000 83.2000 TC 25 4 270
1989302S05079 1990 119 SI MM NOT_NAMED 1989-11-02 03:00:00 TS -8.80005 83.0100 main 1668 1665 P___________P_ SH051990 -8.80005 83.0100 25 -1 -8.80005 83.0100 TC 25 4 270
1989302S05079 1990 119 SI MM NOT_NAMED 1989-11-02 06:00:00 TS -8.80000 82.8000 main 1665 O___________O_ jtwc_sh SH051990 -8.80000 82.8000 25 -1 -8.80000 82.8000 TC 25 4 270

IBTrACS Databaseについて

本データベースは、米国NOAAが公開する1842年以降の世界の熱帯低気圧のベストトラックデータアーカイブInternational Best Track Archive for Climate Stewardship (IBTrACS)を、ウェブで閲覧しやすい形式に変換したものです。

最終更新日:2021-10-27